Time;durP1;ratioP1;P1;durP2;ratioP2;P2;SDS_P1;SDS_P2;PMS_P1;PMS_P2;Temp;Humidity;BMP_temperature;BMP_pressure;BME280_temperature;BME280_humidity;BME280_pressure;Samples;Min_cycle;Max_cycle;Signal;HPM_P1;HPM_P2
2023/08/31 00:02:10;;;;;;;12.73;2.90;;;;;;;22.67;46.09;94729.31;5036494;28;20033;-80
2023/08/31 00:04:36;;;;;;;9.18;2.85;;;;;;;22.65;45.78;94711.91;5035187;28;20037;-79
2023/08/31 00:07:01;;;;;;;10.88;2.95;;;;;;;22.33;45.93;94679.72;5033655;28;20061;-80
2023/08/31 00:09:27;;;;;;;6.45;2.55;;;;;;;22.59;46.02;94710.63;5035511;28;20144;-80
2023/08/31 00:11:52;;;;;;;10.68;2.50;;;;;;;22.28;46.05;94679.19;5035687;28;20045;-79
2023/08/31 00:14:18;;;;;;;6.78;3.08;;;;;;;22.67;46.11;94737.41;5034983;28;20556;-80
2023/08/31 00:16:45;;;;;;;5.57;2.60;;;;;;;22.64;45.98;94742.78;5035287;28;20033;-80
2023/08/31 00:19:11;;;;;;;7.18;2.55;;;;;;;22.58;46.20;94739.56;5033327;28;20025;-79
2023/08/31 00:21:37;;;;;;;6.00;2.80;;;;;;;22.22;46.02;94684.13;5033613;28;20524;-80
2023/08/31 00:24:03;;;;;;;8.85;2.80;;;;;;;22.73;46.10;94732.50;5034041;28;20036;-80
2023/08/31 00:26:30;;;;;;;6.00;2.75;;;;;;;22.83;46.16;94723.00;5033610;28;20041;-80
2023/08/31 00:28:56;;;;;;;13.75;3.40;;;;;;;22.91;45.96;94732.81;5033605;28;20026;-80
2023/08/31 00:31:22;;;;;;;6.07;2.85;;;;;;;22.44;46.24;94701.50;5033152;28;20044;-80
2023/08/31 00:33:48;;;;;;;8.98;2.58;;;;;;;22.17;46.58;94684.44;5035001;28;20037;-80
2023/08/31 00:36:14;;;;;;;8.70;2.60;;;;;;;22.56;46.24;94731.06;5034624;28;20408;-80
2023/08/31 00:38:39;;;;;;;9.00;2.40;;;;;;;22.50;46.10;94715.50;5034682;28;20034;-80
2023/08/31 00:41:05;;;;;;;9.10;2.70;;;;;;;22.63;46.26;94723.06;5034383;28;20042;-80
2023/08/31 00:43:31;;;;;;;10.60;2.95;;;;;;;22.66;45.82;94735.06;5034395;28;20087;-80
2023/08/31 00:45:58;;;;;;;8.32;3.13;;;;;;;22.52;46.25;94746.41;5033082;28;20167;-80
2023/08/31 00:48:24;;;;;;;8.60;3.40;;;;;;;22.47;46.49;94751.34;5034613;28;20041;-80
2023/08/31 00:50:50;;;;;;;15.45;2.85;;;;;;;22.36;46.96;94740.31;5034036;28;20029;-80
2023/08/31 00:53:16;;;;;;;8.68;3.08;;;;;;;22.22;46.74;94704.97;5033754;28;20411;-80
2023/08/31 00:55:44;;;;;;;6.60;2.70;;;;;;;22.43;46.54;94753.97;5033173;28;20120;-80
2023/08/31 00:58:10;;;;;;;20.75;3.13;;;;;;;22.54;46.90;94759.56;5034046;28;20128;-80
2023/08/31 01:00:49;;;;;;;6.43;2.60;;;;;;;22.32;47.23;94750.28;5034855;28;20033;-81
2023/08/31 01:03:41;;;;;;;4.78;2.10;;;;;;;22.32;47.29;94755.69;5033184;28;20040;-80
2023/08/31 01:06:25;;;;;;;;;;;;;;;22.31;47.15;94746.81;5032143;28;20061;-79
2023/08/31 01:09:07;;;;;;;10.15;2.33;;;;;;;22.14;47.38;94732.97;5034140;28;20354;-84
2023/08/31 01:11:51;;;;;;;6.18;2.50;;;;;;;22.06;47.60;94758.28;5038438;28;20187;-85
2023/08/31 01:14:18;;;;;;;7.03;2.88;;;;;;;21.92;48.18;94756.03;5036388;28;20179;-85
2023/08/31 01:16:47;;;;;;;8.10;3.22;;;;;;;21.97;48.16;94763.88;5036941;28;20120;-85
2023/08/31 01:19:48;;;;;;;12.45;3.20;;;;;;;22.01;48.06;94745.84;5036245;28;20108;-85
2023/08/31 01:22:36;;;;;;;4.03;2.00;;;;;;;22.02;48.31;94762.84;5038756;28;20457;-85
2023/08/31 01:25:04;;;;;;;10.07;2.75;;;;;;;22.00;48.08;94765.09;5037404;28;20057;-84
2023/08/31 01:27:31;;;;;;;7.47;2.63;;;;;;;21.63;48.21;94718.81;5035038;28;20040;-85
2023/08/31 01:29:57;;;;;;;7.28;3.10;;;;;;;21.81;48.87;94771.25;5035330;28;20029;-85
2023/08/31 01:32:22;;;;;;;5.45;2.30;;;;;;;21.88;48.82;94769.47;5033839;28;20152;-85
2023/08/31 01:34:50;;;;;;;12.43;2.72;;;;;;;22.05;48.56;94764.84;5034112;28;20083;-85
2023/08/31 01:37:24;;;;;;;6.05;2.45;;;;;;;22.08;48.19;94759.47;5033643;28;20029;-84
2023/08/31 01:39:59;;;;;;;6.40;2.25;;;;;;;22.19;48.14;94754.31;5033307;28;20127;-84
2023/08/31 01:42:26;;;;;;;5.20;2.40;;;;;;;22.26;48.47;94784.94;5033292;28;20463;-84
2023/08/31 01:44:55;;;;;;;7.07;2.67;;;;;;;22.04;48.22;94736.25;5033667;28;20037;-85
2023/08/31 01:47:20;;;;;;;7.85;3.20;;;;;;;22.14;48.02;94732.97;5033059;28;20454;-85
2023/08/31 01:49:46;;;;;;;8.63;2.97;;;;;;;22.29;48.32;94743.69;5033516;28;20037;-85
2023/08/31 01:52:11;;;;;;;11.75;3.55;;;;;;;22.20;48.23;94726.16;5034901;28;20036;-84
2023/08/31 01:54:37;;;;;;;13.35;3.53;;;;;;;22.40;48.53;94757.41;5034452;28;20025;-84
2023/08/31 01:57:03;;;;;;;10.93;3.08;;;;;;;22.46;48.64;94761.34;5033355;28;20060;-85
2023/08/31 01:59:28;;;;;;;9.70;3.00;;;;;;;22.25;48.04;94737.44;5033045;28;20037;-84
2023/08/31 02:01:54;;;;;;;13.95;3.00;;;;;;;22.46;48.18;94774.88;5034405;28;20048;-85
2023/08/31 02:04:20;;;;;;;5.65;2.83;;;;;;;22.17;48.45;94760.06;5032323;28;20048;-84
2023/08/31 02:06:45;;;;;;;11.40;3.72;;;;;;;22.27;48.79;94773.00;5032841;28;20037;-84
2023/08/31 02:09:12;;;;;;;9.50;3.08;;;;;;;22.01;49.44;94772.06;5034126;28;20033;-85
2023/08/31 02:11:37;;;;;;;6.72;2.53;;;;;;;21.88;49.71;94780.28;5034305;28;20071;-85
2023/08/31 02:14:04;;;;;;;12.25;3.00;;;;;;;21.87;49.92;94796.81;5033164;28;20037;-84
2023/08/31 02:16:31;;;;;;;8.95;3.00;;;;;;;21.95;50.01;94793.13;5034288;28;20044;-84
2023/08/31 02:18:56;;;;;;;9.27;2.83;;;;;;;21.35;49.86;94697.44;5034377;28;20037;-86
2023/08/31 02:21:22;;;;;;;11.85;3.38;;;;;;;21.95;49.68;94774.25;5031945;28;20095;-87
2023/08/31 02:23:48;;;;;;;7.97;3.17;;;;;;;21.99;49.61;94783.22;5033690;28;20064;-87
2023/08/31 02:26:13;;;;;;;9.13;2.95;;;;;;;21.79;49.72;94746.53;5032725;28;20037;-87
2023/08/31 02:28:39;;;;;;;9.02;2.63;;;;;;;21.85;49.34;94745.88;5032359;28;20037;-86
2023/08/31 02:31:04;;;;;;;9.32;2.67;;;;;;;21.63;50.47;94751.19;5033296;28;20061;-86
2023/08/31 02:33:30;;;;;;;7.97;3.15;;;;;;;21.78;50.37;94771.94;5032103;28;20613;-87
2023/08/31 02:35:55;;;;;;;13.35;3.35;;;;;;;21.71;50.95;94771.81;5031577;28;20036;-86
2023/08/31 02:38:22;;;;;;;5.43;2.90;;;;;;;21.55;50.81;94756.44;5031831;28;20466;-87
2023/08/31 02:40:47;;;;;;;6.13;2.88;;;;;;;21.62;50.57;94755.81;5031775;28;20068;-86
2023/08/31 02:43:13;;;;;;;7.60;2.55;;;;;;;21.29;50.36;94726.56;5033504;28;20073;-87
2023/08/31 02:45:39;;;;;;;10.23;2.80;;;;;;;21.52;50.32;94756.34;5033428;28;20045;-86
2023/08/31 02:48:07;;;;;;;12.07;3.33;;;;;;;21.52;51.06;94754.44;5033499;28;20029;-86
2023/08/31 02:50:34;;;;;;;9.82;2.78;;;;;;;21.74;51.06;94790.00;5031664;28;20132;-87
2023/08/31 02:52:59;;;;;;;7.55;2.95;;;;;;;21.49;51.17;94771.34;5031363;28;20034;-87
2023/08/31 02:55:25;;;;;;;10.18;3.00;;;;;;;21.40;51.54;94768.06;5031971;28;20040;-86
2023/08/31 02:57:50;;;;;;;13.68;3.17;;;;;;;20.17;51.43;94594.19;5031907;28;20056;-86
2023/08/31 03:00:16;;;;;;;10.57;2.70;;;;;;;21.30;51.77;94768.59;5031711;28;20091;-86
2023/08/31 03:02:43;;;;;;;8.27;2.88;;;;;;;21.45;51.79;94802.06;5031995;28;20037;-86
2023/08/31 03:05:09;;;;;;;5.18;2.80;;;;;;;21.46;51.83;94803.63;5033596;28;20084;-86
2023/08/31 03:07:34;;;;;;;10.63;2.58;;;;;;;21.52;51.96;94819.19;5032020;28;20045;-86
2023/08/31 03:10:00;;;;;;;5.78;2.55;;;;;;;21.43;51.78;94813.22;5033801;28;20056;-86
2023/08/31 03:12:25;;;;;;;6.43;2.90;;;;;;;21.41;52.15;94817.41;5032601;28;20347;-87
2023/08/31 03:14:51;;;;;;;8.43;3.35;;;;;;;21.23;52.06;94784.59;5032124;28;20154;-87
2023/08/31 03:17:16;;;;;;;10.80;3.20;;;;;;;21.34;52.43;94817.22;5033249;28;20052;-87
2023/08/31 03:19:42;;;;;;;8.80;2.70;;;;;;;21.29;52.55;94809.38;5031616;28;20037;-87
2023/08/31 03:22:07;;;;;;;13.45;3.88;;;;;;;21.29;52.28;94804.78;5032312;28;20037;-87
2023/08/31 03:24:33;;;;;;;27.30;4.30;;;;;;;21.13;52.47;94783.19;5034204;28;20091;-87
2023/08/31 03:26:58;;;;;;;8.88;3.63;;;;;;;21.14;52.45;94784.75;5032113;28;20436;-87
2023/08/31 03:29:24;;;;;;;10.82;3.35;;;;;;;21.24;52.28;94799.66;5032784;28;20096;-79
2023/08/31 03:31:49;;;;;;;11.65;3.40;;;;;;;20.96;52.65;94772.78;5036337;28;20041;-79
2023/08/31 03:34:15;;;;;;;11.55;4.38;;;;;;;20.88;53.89;94816.88;5034664;28;20064;-79
2023/08/31 03:36:41;;;;;;;9.32;3.50;;;;;;;20.82;53.53;94793.22;5035892;28;20037;-80
2023/08/31 03:39:06;;;;;;;11.45;3.95;;;;;;;21.02;53.67;94814.53;5035898;28;20037;-80
2023/08/31 03:41:32;;;;;;;7.93;3.95;;;;;;;20.88;53.60;94806.09;5035877;28;20039;-79
2023/08/31 03:43:57;;;;;;;14.98;4.68;;;;;;;20.97;53.54;94812.09;5036231;28;20037;-79
2023/08/31 03:46:24;;;;;;;7.95;4.05;;;;;;;20.87;53.59;94809.13;5035203;28;20045;-80
2023/08/31 03:48:49;;;;;;;9.68;4.75;;;;;;;20.70;53.52;94800.25;5035137;28;20037;-79
2023/08/31 03:51:15;;;;;;;10.60;4.43;;;;;;;21.00;53.97;94842.94;5039741;28;20083;-80
2023/08/31 03:53:40;;;;;;;14.00;3.92;;;;;;;20.75;54.10;94808.06;5038542;28;20044;-79
2023/08/31 03:56:06;;;;;;;14.98;4.93;;;;;;;21.02;53.84;94851.47;5039275;28;20037;-79
2023/08/31 03:58:31;;;;;;;12.55;3.95;;;;;;;20.96;54.04;94852.88;5039009;28;20061;-80
2023/08/31 04:00:56;;;;;;;13.35;3.70;;;;;;;20.68;54.34;94812.47;5039764;28;20045;-79
2023/08/31 04:03:23;;;;;;;7.15;3.17;;;;;;;20.77;54.45;94850.84;5039551;28;20467;-79
2023/08/31 04:05:53;;;;;;;10.10;3.75;;;;;;;20.41;54.66;94798.72;5039164;28;20044;-80
2023/08/31 04:08:19;;;;;;;13.05;4.00;;;;;;;20.54;54.85;94837.16;5038841;28;20049;-80
2023/08/31 04:10:44;;;;;;;12.70;3.95;;;;;;;19.96;55.11;94765.91;5039060;28;20029;-79
2023/08/31 04:13:10;;;;;;;7.30;3.60;;;;;;;20.27;54.49;94795.63;5038881;28;20044;-80
2023/08/31 04:15:35;;;;;;;13.50;3.83;;;;;;;20.63;54.40;94853.16;5037079;28;20033;-79
2023/08/31 04:18:00;;;;;;;11.02;4.82;;;;;;;20.70;54.51;94851.44;5039433;28;20145;-80
2023/08/31 04:20:26;;;;;;;12.82;4.03;;;;;;;20.70;54.40;94842.56;5036868;28;20434;-79
2023/08/31 04:22:51;;;;;;;12.15;3.83;;;;;;;20.79;54.08;94862.06;5038830;28;20043;-79
2023/08/31 04:25:17;;;;;;;13.13;4.35;;;;;;;20.97;54.07;94892.19;5037258;28;20041;-79
2023/08/31 04:27:43;;;;;;;12.38;4.35;;;;;;;20.31;55.07;94828.81;5039263;28;20111;-79
2023/08/31 04:30:08;;;;;;;9.65;3.80;;;;;;;20.55;54.72;94854.88;5038969;28;20835;-79
2023/08/31 04:32:35;;;;;;;11.95;4.13;;;;;;;20.63;54.64;94858.53;5037014;28;20124;-79
2023/08/31 04:35:01;;;;;;;7.70;4.30;;;;;;;20.79;55.11;94892.50;5038663;28;20037;-79
2023/08/31 04:37:26;;;;;;;9.25;4.10;;;;;;;20.56;55.13;94858.34;5037620;28;20488;-80
2023/08/31 04:39:52;;;;;;;10.52;3.55;;;;;;;20.65;55.09;94873.25;5037757;28;20030;-87
2023/08/31 04:42:17;;;;;;;8.70;4.18;;;;;;;20.60;55.03;94861.91;5035349;28;20068;-86
2023/08/31 04:44:43;;;;;;;9.65;4.72;;;;;;;20.91;54.82;94891.63;5034794;28;20033;-87
2023/08/31 04:47:08;;;;;;;13.40;4.75;;;;;;;20.72;54.85;94873.44;5035313;28;20049;-85
2023/08/31 04:49:33;;;;;;;15.15;4.50;;;;;;;20.98;54.97;94904.53;5035499;28;20032;-87
2023/08/31 04:51:59;;;;;;;12.77;4.97;;;;;;;20.74;54.76;94860.41;5033593;28;20598;-87
2023/08/31 04:54:25;;;;;;;14.13;4.03;;;;;;;21.10;54.40;94902.53;5033895;28;20037;-85
2023/08/31 04:56:50;;;;;;;8.32;3.63;;;;;;;20.72;54.25;94851.88;5032782;28;20124;-86
2023/08/31 04:59:16;;;;;;;10.85;3.50;;;;;;;21.20;53.45;94905.88;5031020;28;20152;-85
2023/08/31 05:01:41;;;;;;;13.82;3.97;;;;;;;21.24;53.32;94906.75;5030544;28;20033;-86
2023/08/31 05:04:07;;;;;;;12.70;4.40;;;;;;;21.22;53.32;94907.09;5030485;28;20041;-87
2023/08/31 05:06:32;;;;;;;11.63;4.28;;;;;;;21.09;53.49;94878.63;5032328;28;20110;-88
2023/08/31 05:09:10;;;;;;;14.40;3.83;;;;;;;21.34;53.55;94914.34;5028960;28;20039;-82
2023/08/31 05:11:39;;;;;;;12.07;4.18;;;;;;;20.68;53.28;94799.00;5030275;28;20045;-88
2023/08/31 05:14:51;;;;;;;9.85;3.88;;;;;;;21.49;52.97;94921.66;5018870;28;20041;-86
2023/08/31 05:17:42;;;;;;;;;;;;;;;;;;;;;
2023/08/31 05:20:18;;;;;;;8.45;3.38;;;;;;;19.26;52.29;94582.56;5009838;28;19929;-87
2023/08/31 05:22:44;;;;;;;9.50;3.85;;;;;;;21.60;52.43;94938.06;4993426;28;20513;-84
2023/08/31 05:25:09;;;;;;;12.95;5.40;;;;;;;20.43;52.45;94757.97;5006437;28;20076;-84
2023/08/31 05:27:35;;;;;;;16.58;5.20;;;;;;;20.82;52.62;94787.84;4996417;28;20041;-85
2023/08/31 05:30:00;;;;;;;17.90;5.50;;;;;;;21.30;52.69;94878.38;4991156;28;20508;-86
2023/08/31 05:32:29;;;;;;;16.40;5.93;;;;;;;19.55;52.58;94566.09;4994206;28;20553;-84
2023/08/31 05:34:54;;;;;;;23.20;5.50;;;;;;;21.86;52.41;94912.13;5000625;28;20106;-85
2023/08/31 05:37:20;;;;;;;16.60;4.93;;;;;;;21.60;52.00;94860.59;5005665;28;20038;-86
2023/08/31 05:39:49;;;;;;;16.80;4.93;;;;;;;21.59;52.09;94858.28;4994758;28;20095;-85
2023/08/31 05:42:14;;;;;;;13.57;4.78;;;;;;;21.94;51.69;94903.06;4991494;28;20037;-84
2023/08/31 05:44:39;;;;;;;16.05;4.93;;;;;;;21.92;51.87;94897.22;4993894;28;20041;-83
2023/08/31 05:47:05;;;;;;;18.25;5.25;;;;;;;21.73;51.84;94858.59;5006953;28;20122;-84
2023/08/31 05:49:30;;;;;;;18.58;4.95;;;;;;;22.10;51.49;94916.53;5012361;28;20026;-85
2023/08/31 05:51:56;;;;;;;17.33;4.68;;;;;;;21.86;51.01;94865.44;5015240;28;20056;-80
2023/08/31 05:54:21;;;;;;;21.58;5.80;;;;;;;22.01;51.31;94880.84;5012134;28;20061;-79
2023/08/31 05:56:47;;;;;;;13.70;4.72;;;;;;;21.97;50.87;94871.88;4992015;28;20033;-80
2023/08/31 05:59:13;;;;;;;15.52;4.20;;;;;;;22.11;50.49;94883.00;5012117;28;20501;-80
2023/08/31 06:01:38;;;;;;;14.30;3.78;;;;;;;22.16;49.59;94898.94;5022550;28;20034;-79
2023/08/31 06:04:05;;;;;;;12.25;4.28;;;;;;;22.30;49.44;94906.53;5004810;28;20068;-79
2023/08/31 06:06:32;;;;;;;17.83;4.57;;;;;;;21.82;49.72;94837.56;5003197;28;20379;-79
2023/08/31 06:08:58;;;;;;;13.10;3.95;;;;;;;22.09;49.61;94887.97;4996959;28;20113;-79
2023/08/31 06:11:23;;;;;;;14.07;4.53;;;;;;;22.24;49.31;94914.16;5009787;28;20066;-82
2023/08/31 06:13:48;;;;;;;16.65;3.85;;;;;;;22.21;49.12;94916.75;5005685;28;20116;-82
2023/08/31 06:16:14;;;;;;;12.00;3.75;;;;;;;22.30;48.99;94934.34;4992395;28;20037;-78
2023/08/31 06:18:39;;;;;;;10.35;3.90;;;;;;;21.99;49.69;94901.22;5000592;28;20158;-79
2023/08/31 06:21:05;;;;;;;14.25;4.20;;;;;;;21.87;49.84;94875.13;5027144;28;20099;-79
2023/08/31 06:23:30;;;;;;;19.58;5.07;;;;;;;22.37;50.46;94938.31;5032354;28;20083;-80
2023/08/31 06:25:56;;;;;;;19.08;4.38;;;;;;;22.42;50.26;94938.84;5010888;28;20060;-79
2023/08/31 06:28:21;;;;;;;16.50;4.53;;;;;;;22.22;50.19;94916.41;5009680;28;20029;-80
2023/08/31 06:30:47;;;;;;;16.45;4.50;;;;;;;22.26;49.96;94914.59;5012943;28;20112;-82
2023/08/31 06:33:14;;;;;;;14.35;4.60;;;;;;;22.42;49.55;94940.75;5014124;28;20120;-79
2023/08/31 06:35:39;;;;;;;20.25;4.97;;;;;;;22.50;49.67;94950.59;5009958;28;20033;-80
2023/08/31 06:38:05;;;;;;;20.17;4.30;;;;;;;22.30;48.91;94931.63;5015899;28;20562;-78
2023/08/31 06:40:31;;;;;;;18.00;3.72;;;;;;;22.38;48.69;94953.41;5015128;28;20034;-78
2023/08/31 06:42:57;;;;;;;11.70;3.70;;;;;;;22.28;49.64;94960.13;5032452;28;20033;-79
2023/08/31 06:45:22;;;;;;;9.07;3.40;;;;;;;22.14;49.57;94922.78;5005596;28;20457;-81
2023/08/31 06:47:47;;;;;;;11.50;4.18;;;;;;;22.02;49.14;94887.03;5025503;28;20357;-81
2023/08/31 06:50:13;;;;;;;17.65;4.13;;;;;;;22.56;48.72;94954.56;5026905;28;20493;-79
2023/08/31 06:52:40;;;;;;;14.95;4.13;;;;;;;22.22;48.87;94902.91;5018123;28;20142;-79
2023/08/31 06:55:06;;;;;;;16.17;3.60;;;;;;;22.26;48.66;94900.28;5028332;28;20033;-81
2023/08/31 06:57:32;;;;;;;16.92;3.88;;;;;;;22.57;48.47;94948.03;5027269;28;20109;-80
2023/08/31 06:59:57;;;;;;;19.45;4.50;;;;;;;22.38;48.05;94916.38;5012178;28;20482;-85
2023/08/31 07:02:25;;;;;;;11.90;3.17;;;;;;;22.75;47.80;94965.41;5013810;28;20040;-84
2023/08/31 07:04:52;;;;;;;16.80;3.85;;;;;;;22.58;47.56;94928.75;5032525;28;20432;-83
2023/08/31 07:07:18;;;;;;;10.35;3.40;;;;;;;22.57;47.20;94967.75;5013135;28;20041;-85
2023/08/31 07:09:45;;;;;;;7.60;2.85;;;;;;;22.64;47.44;94973.28;5027305;28;20040;-84
2023/08/31 07:12:11;;;;;;;12.07;2.75;;;;;;;22.48;46.99;94933.94;5030117;28;20168;-85
2023/08/31 07:14:37;;;;;;;15.27;2.83;;;;;;;22.64;46.75;94965.19;5033502;28;20116;-85
2023/08/31 07:17:02;;;;;;;14.05;3.40;;;;;;;22.56;46.75;94966.16;5038042;28;20037;-84
2023/08/31 07:19:28;;;;;;;13.63;3.33;;;;;;;22.44;46.84;94938.47;5029062;28;20740;-84
2023/08/31 07:21:56;;;;;;;11.43;3.40;;;;;;;22.44;46.56;94939.25;5009859;28;20422;-85
2023/08/31 07:24:23;;;;;;;11.43;3.55;;;;;;;22.75;46.66;94959.22;5015081;28;20500;-85
2023/08/31 07:26:50;;;;;;;11.20;2.97;;;;;;;22.78;46.19;94970.13;5033066;28;20123;-85
2023/08/31 07:29:16;;;;;;;8.65;2.95;;;;;;;22.70;46.10;94954.88;5029577;28;20029;-86
2023/08/31 07:31:41;;;;;;;9.77;3.22;;;;;;;21.98;45.70;94830.25;5028616;28;20103;-84
2023/08/31 07:34:07;;;;;;;21.70;3.67;;;;;;;22.55;45.72;94931.38;5007781;28;20435;-85
2023/08/31 07:36:33;;;;;;;17.50;4.30;;;;;;;22.87;47.38;94973.41;5000404;28;20115;-85
2023/08/31 07:38:58;;;;;;;9.98;2.85;;;;;;;22.80;46.61;94957.03;5004705;28;20069;-82
2023/08/31 07:41:24;;;;;;;15.70;5.07;;;;;;;23.05;46.45;94952.88;5031190;28;20191;-84
2023/08/31 07:43:49;;;;;;;9.98;3.00;;;;;;;22.96;46.08;94963.13;5030886;28;20029;-83
2023/08/31 07:46:15;;;;;;;10.02;2.90;;;;;;;22.93;45.81;94954.97;5024552;28;20041;-83
2023/08/31 07:48:42;;;;;;;12.85;3.03;;;;;;;22.82;45.76;94943.91;5028198;28;20049;-86
2023/08/31 07:51:07;;;;;;;11.98;3.08;;;;;;;23.01;45.93;94960.16;5010494;28;20033;-86
2023/08/31 07:53:33;;;;;;;15.75;2.95;;;;;;;23.11;45.84;94977.72;5032610;28;20048;-85
2023/08/31 07:55:58;;;;;;;9.40;2.80;;;;;;;23.05;45.79;94954.78;5022041;28;20114;-83
2023/08/31 07:58:24;;;;;;;16.88;2.50;;;;;;;23.17;45.52;94967.38;5010678;28;20453;-86
2023/08/31 08:00:52;;;;;;;11.88;3.10;;;;;;;23.16;46.20;94980.13;5012835;28;20495;-85
2023/08/31 08:03:18;;;;;;;8.65;2.60;;;;;;;23.38;46.08;94978.59;5011813;28;20056;-85
2023/08/31 08:05:43;;;;;;;8.23;2.70;;;;;;;23.42;45.49;94974.03;5027623;28;20033;-84
2023/08/31 08:08:10;;;;;;;12.18;3.35;;;;;;;23.36;45.58;94972.75;5016615;28;20065;-85
2023/08/31 08:10:35;;;;;;;12.05;3.88;;;;;;;23.41;44.50;94972.47;5032348;28;20056;-82
2023/08/31 08:13:00;;;;;;;5.93;2.88;;;;;;;23.46;44.58;94961.34;5033481;28;20532;-85
2023/08/31 08:15:26;;;;;;;12.90;3.22;;;;;;;23.33;45.03;94941.81;5018843;28;20504;-85
2023/08/31 08:17:53;;;;;;;15.15;3.03;;;;;;;23.47;45.14;94974.53;5040218;28;20101;-85
2023/08/31 08:20:19;;;;;;;7.40;2.85;;;;;;;23.13;44.47;94888.09;5030658;28;20034;-85
2023/08/31 08:22:44;;;;;;;10.15;3.40;;;;;;;23.75;44.29;94965.34;5034514;28;20030;-87
2023/08/31 08:25:10;;;;;;;8.80;2.72;;;;;;;23.72;43.47;94957.97;5021383;28;20124;-85
2023/08/31 08:27:36;;;;;;;5.60;3.33;;;;;;;23.62;42.73;94940.38;5035893;28;20530;-86
2023/08/31 08:30:03;;;;;;;7.78;3.58;;;;;;;23.66;41.26;94971.00;5021531;28;20038;-86
2023/08/31 08:32:28;;;;;;;7.63;3.47;;;;;;;23.67;41.10;94966.38;5028958;28;20041;-84
2023/08/31 08:34:54;;;;;;;13.35;3.58;;;;;;;23.40;40.19;94914.88;5039441;28;20040;-84
2023/08/31 08:37:19;;;;;;;13.32;3.70;;;;;;;23.82;39.98;94973.56;5016790;28;20128;-85
2023/08/31 08:39:49;;;;;;;7.57;3.78;;;;;;;23.43;40.55;94910.63;5033445;28;20056;-85
2023/08/31 08:42:17;;;;;;;13.60;4.43;;;;;;;23.90;39.95;94969.84;5020319;28;20041;-83
2023/08/31 08:44:43;;;;;;;10.65;4.18;;;;;;;23.60;40.15;94912.09;5034702;28;20037;-86
2023/08/31 08:47:10;;;;;;;8.18;4.60;;;;;;;23.93;38.10;94962.94;5013980;28;20389;-84
2023/08/31 08:49:36;;;;;;;11.13;4.88;;;;;;;23.96;38.26;94946.72;5032926;28;20026;-85
2023/08/31 08:52:02;;;;;;;9.07;4.28;;;;;;;24.13;37.65;94940.00;5013442;28;20091;-83
2023/08/31 08:54:28;;;;;;;10.32;5.15;;;;;;;24.09;35.76;94939.97;5007849;28;20398;-83
2023/08/31 08:56:53;;;;;;;7.45;4.95;;;;;;;24.29;35.54;94931.75;5001551;28;20123;-81
2023/08/31 08:59:19;;;;;;;8.98;4.80;;;;;;;24.34;34.82;94940.34;5017912;28;20264;-86
2023/08/31 09:01:46;;;;;;;8.98;5.30;;;;;;;24.45;34.75;94941.28;5035781;28;20092;-84
2023/08/31 09:04:12;;;;;;;11.75;5.40;;;;;;;24.57;34.34;94965.44;5011151;28;20083;-86
2023/08/31 09:06:38;;;;;;;10.20;5.53;;;;;;;24.38;34.25;94903.22;5030943;28;20168;-85
2023/08/31 09:09:04;;;;;;;10.45;5.03;;;;;;;24.58;34.49;94956.16;5031200;28;20132;-85
2023/08/31 09:11:29;;;;;;;9.43;4.88;;;;;;;24.58;34.56;94955.38;5017824;28;20073;-82
2023/08/31 09:13:57;;;;;;;9.90;4.03;;;;;;;24.64;34.46;94967.47;5018780;28;20842;-86
2023/08/31 09:16:28;;;;;;;10.88;4.50;;;;;;;24.57;34.67;94941.03;5033986;28;20092;-86
2023/08/31 09:18:54;;;;;;;11.68;4.70;;;;;;;24.57;34.81;94918.56;4989945;28;20049;-81
2023/08/31 09:21:20;;;;;;;6.28;4.05;;;;;;;24.88;34.83;94968.91;5014818;28;20362;-80
2023/08/31 09:23:58;;;;;;;8.35;4.28;;;;;;;24.67;35.57;94949.66;5011880;28;20504;-82
2023/08/31 09:26:23;;;;;;;9.57;4.45;;;;;;;24.71;35.57;94948.59;5022343;28;20392;-82
2023/08/31 09:28:49;;;;;;;9.77;4.72;;;;;;;24.91;35.52;94979.06;4997333;28;20037;-80
2023/08/31 09:31:14;;;;;;;9.70;4.90;;;;;;;24.94;35.53;94972.91;5000620;28;20492;-80
2023/08/31 09:33:52;;;;;;;8.07;4.25;;;;;;;24.94;35.65;94954.72;5023255;28;20045;-81
2023/08/31 09:36:17;;;;;;;10.80;4.55;;;;;;;24.90;35.30;94950.34;5027966;28;20029;-81
2023/08/31 09:38:44;;;;;;;9.98;4.30;;;;;;;24.91;34.75;94963.56;5027817;28;20037;-79
2023/08/31 09:41:09;;;;;;;9.60;4.85;;;;;;;24.79;35.41;94946.75;5032251;28;20038;-79
2023/08/31 09:43:35;;;;;;;7.63;4.68;;;;;;;24.84;35.58;94932.84;5027255;28;20039;-79
2023/08/31 09:46:03;;;;;;;9.13;4.68;;;;;;;25.06;35.55;94947.47;5012902;28;20532;-79
2023/08/31 09:48:30;;;;;;;8.88;4.13;;;;;;;24.64;35.39;94934.16;5030011;28;20045;-80
2023/08/31 09:50:56;;;;;;;9.02;4.60;;;;;;;24.85;35.64;94953.41;5035480;28;20045;-82
2023/08/31 09:53:27;;;;;;;12.32;5.13;;;;;;;24.94;35.10;94945.78;5017670;28;20131;-80
2023/08/31 09:55:54;;;;;;;9.18;4.65;;;;;;;25.20;35.27;94925.91;5019395;28;20051;-82
2023/08/31 09:58:21;;;;;;;11.10;4.60;;;;;;;25.59;34.39;94920.88;5019806;28;20767;-79
2023/08/31 10:00:48;;;;;;;11.27;4.65;;;;;;;26.16;33.00;94905.78;5014788;28;20029;-80
2023/08/31 10:03:15;;;;;;;10.40;4.93;;;;;;;27.07;32.20;94963.78;5013490;28;20053;-80
2023/08/31 10:05:43;;;;;;;8.43;4.68;;;;;;;27.10;31.23;94912.03;5029919;28;20052;-81
2023/08/31 10:08:09;;;;;;;10.15;4.10;;;;;;;28.08;29.87;94955.34;5010079;28;20068;-80
2023/08/31 10:10:35;;;;;;;8.27;4.70;;;;;;;28.26;28.46;94924.22;5013162;28;20069;-80
2023/08/31 10:13:01;;;;;;;6.00;4.22;;;;;;;28.54;27.94;94925.31;5011583;28;20113;-80
2023/08/31 10:15:33;;;;;;;6.68;4.50;;;;;;;28.46;27.49;94905.47;5011952;28;20064;-80
2023/08/31 10:18:00;;;;;;;7.80;4.85;;;;;;;28.92;27.74;94956.41;5028474;28;20480;-80
2023/08/31 10:20:28;;;;;;;6.95;4.55;;;;;;;29.06;26.97;94938.03;5027863;28;20409;-79
2023/08/31 10:22:56;;;;;;;9.38;4.35;;;;;;;29.49;26.54;94918.69;5029056;28;20076;-79
2023/08/31 10:25:21;;;;;;;6.78;5.20;;;;;;;30.01;25.51;94952.28;5029760;28;20127;-80
2023/08/31 10:27:50;;;;;;;6.65;4.35;;;;;;;30.65;24.51;94947.00;5031315;28;20049;-79
2023/08/31 10:30:22;;;;;;;10.00;5.20;;;;;;;31.43;23.15;94940.56;5011405;28;20160;-79
2023/08/31 10:33:09;;;;;;;7.28;4.70;;;;;;;31.31;23.82;94957.56;5011697;28;20037;-79
2023/08/31 10:35:47;;;;;;;8.43;5.47;;;;;;;30.26;23.70;94936.44;5025516;28;20029;-80
2023/08/31 10:38:30;;;;;;;8.57;4.88;;;;;;;30.02;24.89;94942.13;5024806;28;20029;-81
2023/08/31 10:41:07;;;;;;;9.73;5.22;;;;;;;29.50;25.84;94948.34;5021932;28;20104;-79
2023/08/31 10:43:53;;;;;;;9.35;5.00;;;;;;;29.03;26.64;94952.47;5028187;28;20025;-82
2023/08/31 10:46:44;;;;;;;7.00;4.88;;;;;;;28.00;27.95;94933.56;5022596;28;20033;-79
2023/08/31 10:49:09;;;;;;;8.65;4.95;;;;;;;27.77;28.88;94962.38;5007546;28;20158;-80
2023/08/31 10:51:43;;;;;;;8.57;5.00;;;;;;;27.50;29.78;94968.16;5022555;28;20072;-81
2023/08/31 10:54:24;;;;;;;7.88;4.85;;;;;;;27.53;29.49;94964.69;5011028;28;20033;-79
2023/08/31 10:56:50;;;;;;;8.75;4.40;;;;;;;27.68;29.50;94960.03;5025395;28;20060;-82
2023/08/31 10:59:15;;;;;;;9.48;5.07;;;;;;;27.06;29.74;94884.06;5029291;28;20033;-79
2023/08/31 11:02:02;;;;;;;8.05;4.68;;;;;;;27.27;30.34;94963.03;5031240;28;20148;-78
2023/08/31 11:04:29;;;;;;;7.47;4.10;;;;;;;26.99;30.60;94960.25;5014927;28;20144;-79
2023/08/31 11:07:14;;;;;;;6.88;4.47;;;;;;;27.04;31.67;94959.84;5011461;28;20493;-79
2023/08/31 11:09:41;;;;;;;10.55;4.78;;;;;;;26.98;32.10;94944.28;5022807;28;20306;-80
2023/08/31 11:12:07;;;;;;;6.63;4.53;;;;;;;26.71;32.23;94949.19;5027763;28;20033;-82
2023/08/31 11:14:32;;;;;;;13.07;4.93;;;;;;;26.71;32.30;94943.75;5007572;28;20076;-81
2023/08/31 11:17:00;;;;;;;8.43;4.90;;;;;;;26.86;32.17;94945.38;5026227;28;20501;-80
2023/08/31 11:19:26;;;;;;;7.15;4.32;;;;;;;26.82;32.04;94948.09;5027610;28;20049;-80
2023/08/31 11:21:51;;;;;;;6.32;4.28;;;;;;;26.86;32.22;94967.91;5020067;28;20041;-80
2023/08/31 11:24:17;;;;;;;10.75;4.35;;;;;;;26.52;32.18;94923.09;5023109;28;20038;-82
2023/08/31 11:26:43;;;;;;;8.30;4.85;;;;;;;26.69;32.26;94929.78;5007129;28;20037;-79
2023/08/31 11:29:08;;;;;;;8.63;4.57;;;;;;;26.86;31.98;94948.88;5030925;28;20037;-79
2023/08/31 11:31:39;;;;;;;6.25;4.20;;;;;;;26.99;31.78;94948.56;5031731;28;20033;-80
2023/08/31 11:34:06;;;;;;;9.57;4.20;;;;;;;27.08;31.73;94981.66;5004567;28;20037;-80